createdAt,value
2016-09-06T00:01:31.101Z,62.79
2016-09-06T00:02:04.658Z,62.78
2016-09-06T00:02:47.344Z,62.79
2016-09-06T00:03:49.665Z,62.79
2016-09-06T00:04:56.926Z,62.80
2016-09-06T00:05:47.985Z,62.76
2016-09-06T00:06:53.948Z,62.78
2016-09-06T00:08:23.454Z,62.79
2016-09-06T00:09:01.658Z,62.78
2016-09-06T00:09:40.565Z,62.76
2016-09-06T00:10:59.933Z,62.77
2016-09-06T00:11:49.867Z,62.78
2016-09-06T00:12:51.953Z,62.77
2016-09-06T00:13:50.251Z,62.77
2016-09-06T00:14:54.091Z,62.79
2016-09-06T00:16:20.009Z,62.79
2016-09-06T00:16:48.848Z,62.80
2016-09-06T00:17:56.917Z,62.80
2016-09-06T00:18:53.321Z,62.82
2016-09-06T00:19:55.571Z,62.81
2016-09-06T00:20:51.438Z,62.80
2016-09-06T00:21:55.681Z,62.80
2016-09-06T00:22:45.158Z,62.80
2016-09-06T00:23:49.474Z,62.80
2016-09-06T00:24:45.914Z,62.81
2016-09-06T00:25:50.239Z,62.82
2016-09-06T00:26:50.257Z,62.82
2016-09-06T00:27:54.895Z,62.84
2016-09-06T00:28:39.090Z,62.85
2016-09-06T00:29:48.847Z,62.85
2016-09-06T00:30:51.765Z,62.88
2016-09-06T00:32:00.623Z,62.89
2016-09-06T00:32:53.390Z,62.88
2016-09-06T00:33:55.367Z,62.89
2016-09-06T00:34:45.588Z,62.72
2016-09-06T00:35:45.887Z,61.90
2016-09-06T00:36:51.122Z,61.67
2016-09-06T00:37:57.060Z,61.54
2016-09-06T00:38:56.877Z,61.74
2016-09-06T00:39:46.182Z,62.47
2016-09-06T00:40:55.480Z,62.66
2016-09-06T00:41:54.659Z,62.75
2016-09-06T00:42:40.106Z,62.79
2016-09-06T00:43:49.430Z,62.84
2016-09-06T00:44:50.269Z,62.88
2016-09-06T00:45:34.535Z,62.88
2016-09-06T00:46:39.982Z,62.89
2016-09-06T00:47:53.727Z,62.98
2016-09-06T00:49:00.373Z,62.89
2016-09-06T00:49:54.931Z,62.92
2016-09-06T00:50:45.088Z,62.92
2016-09-06T00:51:49.821Z,62.77
2016-09-06T00:52:49.703Z,61.91
2016-09-06T00:53:51.819Z,61.72
2016-09-06T00:54:51.836Z,61.60
2016-09-06T00:55:51.251Z,61.56
2016-09-06T00:56:51.176Z,61.51
2016-09-06T00:57:39.420Z,61.50
2016-09-06T00:58:14.450Z,61.43
2016-09-06T00:59:55.116Z,61.47
2016-09-06T01:00:55.049Z,61.44
2016-09-06T01:01:54.614Z,61.49
2016-09-06T01:02:55.097Z,61.48
2016-09-06T01:03:54.840Z,61.50
2016-09-06T01:05:00.363Z,61.52
2016-09-06T01:05:50.108Z,61.54
2016-09-06T01:06:48.699Z,62.52
2016-09-06T01:07:53.731Z,62.74
2016-09-06T01:08:55.469Z,62.85
2016-09-06T01:10:24.474Z,62.90
2016-09-06T01:10:57.291Z,62.96
2016-09-06T01:12:18.513Z,63.00
2016-09-06T01:12:54.722Z,63.03
2016-09-06T01:13:39.428Z,63.06
2016-09-06T01:15:11.428Z,63.05
2016-09-06T01:16:04.057Z,63.08
2016-09-06T01:16:47.638Z,63.07
2016-09-06T01:17:51.238Z,63.08
2016-09-06T01:18:55.300Z,63.09
2016-09-06T01:20:01.123Z,63.11
2016-09-06T01:20:48.275Z,63.11
2016-09-06T01:21:54.663Z,63.12
2016-09-06T01:23:05.617Z,62.93
2016-09-06T01:23:54.495Z,62.13
2016-09-06T01:24:44.780Z,61.94
2016-09-06T01:25:47.216Z,61.85
2016-09-06T01:26:40.490Z,61.86
2016-09-06T01:27:51.695Z,62.74
2016-09-06T01:28:55.314Z,62.94
2016-09-06T01:29:39.939Z,63.04
2016-09-06T01:30:54.377Z,63.08
2016-09-06T01:31:51.809Z,63.12
2016-09-06T01:32:54.686Z,63.15
2016-09-06T01:33:46.015Z,63.17
2016-09-06T01:34:59.554Z,63.20
2016-09-06T01:35:53.485Z,63.20
2016-09-06T01:36:55.232Z,63.22
2016-09-06T01:37:53.234Z,63.23
2016-09-06T01:38:47.761Z,63.22
2016-09-06T01:39:50.592Z,63.22
2016-09-06T01:40:55.635Z,63.23
2016-09-06T01:41:45.599Z,63.25
2016-09-06T01:42:49.877Z,63.28
2016-09-06T01:43:50.955Z,63.27
2016-09-06T01:44:13.949Z,63.29
2016-09-06T01:45:58.453Z,63.31
2016-09-06T01:46:49.351Z,63.30
2016-09-06T01:47:55.130Z,63.31
2016-09-06T01:48:53.098Z,63.30
2016-09-06T01:49:53.482Z,63.33
2016-09-06T01:50:53.225Z,63.32
2016-09-06T01:51:45.972Z,63.39
2016-09-06T01:52:51.704Z,63.34
2016-09-06T01:53:56.934Z,63.32
2016-09-06T01:54:54.388Z,63.36
2016-09-06T01:55:45.796Z,63.38
2016-09-06T01:57:21.965Z,63.40
2016-09-06T01:57:40.654Z,63.39
2016-09-06T01:58:47.592Z,63.42
2016-09-06T01:59:40.051Z,63.43
2016-09-06T02:00:54.487Z,63.41
2016-09-06T02:01:50.739Z,63.42
2016-09-06T02:02:50.575Z,63.44
2016-09-06T02:03:50.315Z,63.43
2016-09-06T02:04:50.482Z,63.42
2016-09-06T02:05:41.157Z,63.43
2016-09-06T02:06:48.488Z,63.49
2016-09-06T02:07:44.509Z,63.58
2016-09-06T02:08:45.451Z,63.58
2016-09-06T02:09:51.761Z,63.63
2016-09-06T02:10:44.732Z,63.74
2016-09-06T02:11:52.012Z,63.75
2016-09-06T02:12:39.276Z,63.75
2016-09-06T02:13:39.661Z,63.77
2016-09-06T02:14:45.458Z,63.74
2016-09-06T02:15:51.561Z,63.68
2016-09-06T02:16:52.196Z,63.74
2016-09-06T02:17:48.257Z,63.69
2016-09-06T02:19:02.843Z,63.72
2016-09-06T02:19:58.106Z,63.74
2016-09-06T02:20:50.070Z,63.79
2016-09-06T02:21:55.399Z,63.79
2016-09-06T02:22:57.008Z,63.79
2016-09-06T02:23:50.402Z,63.82
2016-09-06T02:24:51.042Z,63.84
2016-09-06T02:25:49.753Z,63.83
2016-09-06T02:26:40.422Z,63.91
2016-09-06T02:27:14.216Z,63.94
2016-09-06T02:28:39.521Z,63.98
2016-09-06T02:29:48.934Z,63.99
2016-09-06T02:30:53.078Z,63.99
2016-09-06T02:31:53.756Z,64.05
2016-09-06T02:32:53.555Z,64.02
2016-09-06T02:33:46.488Z,64.03
2016-09-06T02:34:50.325Z,64.08
2016-09-06T02:35:45.818Z,64.06
2016-09-06T02:36:45.196Z,64.07
2016-09-06T02:37:51.568Z,64.06
2016-09-06T02:38:51.189Z,64.07
2016-09-06T02:39:55.069Z,64.06
2016-09-06T02:40:48.309Z,64.07
2016-09-06T02:41:51.090Z,64.09
2016-09-06T02:42:55.902Z,64.09
2016-09-06T02:43:51.578Z,64.10
2016-09-06T02:44:51.525Z,64.07
2016-09-06T02:45:50.846Z,64.08
2016-09-06T02:46:40.893Z,64.08
2016-09-06T02:47:55.993Z,64.10
2016-09-06T02:48:54.885Z,64.10
2016-09-06T02:49:46.361Z,64.11
2016-09-06T02:50:55.548Z,64.11
2016-09-06T02:51:45.785Z,64.11
2016-09-06T02:52:50.546Z,64.08
2016-09-06T02:53:46.108Z,64.10
2016-09-06T02:54:54.548Z,64.08
2016-09-06T02:55:53.588Z,64.08
2016-09-06T02:56:51.374Z,64.07
2016-09-06T02:57:55.592Z,64.07
2016-09-06T02:58:54.384Z,64.07
2016-09-06T02:59:54.873Z,64.06
2016-09-06T03:00:51.597Z,64.08
2016-09-06T03:01:55.176Z,64.08
2016-09-06T03:03:05.507Z,64.07
2016-09-06T03:03:49.971Z,64.08
2016-09-06T03:04:50.164Z,64.10
2016-09-06T03:05:55.987Z,64.10
2016-09-06T03:06:48.308Z,64.10
2016-09-06T03:07:54.715Z,64.08
2016-09-06T03:08:55.946Z,64.08
2016-09-06T03:09:50.599Z,64.08
2016-09-06T03:10:55.254Z,64.10
2016-09-06T03:11:51.048Z,64.11
2016-09-06T03:12:38.354Z,64.09
2016-09-06T03:14:00.008Z,64.08
2016-09-06T03:14:49.898Z,64.10
2016-09-06T03:15:40.581Z,64.15
2016-09-06T03:16:40.388Z,64.22
2016-09-06T03:17:54.102Z,64.23
2016-09-06T03:18:55.127Z,64.27
2016-09-06T03:19:55.023Z,64.33
2016-09-06T03:20:48.597Z,64.34
2016-09-06T03:21:46.038Z,64.32
2016-09-06T03:22:58.665Z,64.36
2016-09-06T03:24:06.170Z,64.35
2016-09-06T03:25:00.630Z,64.36
2016-09-06T03:25:49.643Z,64.41
2016-09-06T03:26:51.102Z,64.36
2016-09-06T03:27:49.269Z,64.41
2016-09-06T03:28:45.632Z,64.41
2016-09-06T03:29:54.905Z,64.40
2016-09-06T03:30:45.798Z,64.40
2016-09-06T03:31:50.652Z,64.37
2016-09-06T03:32:55.297Z,64.35
2016-09-06T03:33:45.468Z,63.35
2016-09-06T03:34:51.218Z,63.14
2016-09-06T03:35:34.870Z,63.03
2016-09-06T03:37:00.652Z,62.98
2016-09-06T03:37:54.148Z,62.94
2016-09-06T03:38:46.317Z,62.90
2016-09-06T03:39:56.066Z,62.90
2016-09-06T03:40:47.446Z,62.95
2016-09-06T03:41:45.707Z,62.95
2016-09-06T03:42:45.854Z,62.93
2016-09-06T03:43:55.318Z,63.05
2016-09-06T03:44:45.801Z,63.95
2016-09-06T03:45:56.579Z,64.16
2016-09-06T03:46:46.439Z,64.26
2016-09-06T03:47:56.755Z,64.34
2016-09-06T03:48:50.799Z,64.39
2016-09-06T03:49:51.607Z,64.48
2016-09-06T03:50:51.650Z,64.55
2016-09-06T03:52:01.365Z,64.53
2016-09-06T03:52:50.605Z,64.53
2016-09-06T03:53:51.642Z,64.58
2016-09-06T03:54:50.424Z,64.57
2016-09-06T03:55:51.375Z,64.54
2016-09-06T03:56:53.675Z,64.59
2016-09-06T03:57:55.328Z,64.57
2016-09-06T03:58:55.523Z,64.56
2016-09-06T03:59:51.614Z,64.61
2016-09-06T04:00:50.707Z,64.61
2016-09-06T04:01:46.229Z,64.57
2016-09-06T04:02:49.614Z,64.57
2016-09-06T04:04:31.760Z,64.57
2016-09-06T04:04:54.823Z,64.57
2016-09-06T04:05:55.100Z,64.57
2016-09-06T04:06:49.710Z,64.52
2016-09-06T04:07:51.618Z,64.54
2016-09-06T04:08:38.950Z,64.53
2016-09-06T04:09:49.852Z,64.52
2016-09-06T04:10:57.107Z,64.51
2016-09-06T04:11:47.040Z,64.50
2016-09-06T04:13:01.156Z,64.51
2016-09-06T04:13:54.250Z,64.50
2016-09-06T04:14:40.043Z,64.51
2016-09-06T04:15:51.084Z,64.52
2016-09-06T04:16:54.277Z,64.49
2016-09-06T04:17:53.698Z,64.46
2016-09-06T04:19:04.748Z,64.46
2016-09-06T04:19:49.762Z,64.50
2016-09-06T04:20:46.367Z,64.49
2016-09-06T04:21:51.619Z,64.46
2016-09-06T04:22:51.577Z,64.49
2016-09-06T04:23:47.138Z,64.48
2016-09-06T04:24:54.615Z,64.47
2016-09-06T04:26:01.343Z,64.47
2016-09-06T04:26:50.651Z,64.46
2016-09-06T04:27:55.775Z,64.45
2016-09-06T04:29:15.938Z,64.44
2016-09-06T04:30:00.397Z,64.45
2016-09-06T04:30:53.791Z,64.45
2016-09-06T04:31:46.251Z,64.44
2016-09-06T04:32:45.227Z,64.49
2016-09-06T04:33:55.649Z,64.51
2016-09-06T04:34:58.366Z,64.52
2016-09-06T04:35:53.252Z,64.52
2016-09-06T04:36:51.974Z,64.51
2016-09-06T04:37:50.165Z,64.52
2016-09-06T04:39:15.713Z,64.50
2016-09-06T04:40:02.521Z,64.52
2016-09-06T04:41:01.521Z,64.52
2016-09-06T04:41:54.936Z,64.53
2016-09-06T04:42:49.556Z,64.54
2016-09-06T04:43:51.576Z,64.52
2016-09-06T04:44:54.939Z,64.52
2016-09-06T04:45:58.709Z,64.48
2016-09-06T04:46:48.211Z,64.51
2016-09-06T04:48:00.639Z,64.49
2016-09-06T04:49:00.227Z,64.47
2016-09-06T04:49:54.788Z,64.50
2016-09-06T04:50:55.730Z,64.49
2016-09-06T04:51:50.697Z,64.51
2016-09-06T04:52:50.830Z,64.52
2016-09-06T04:53:51.569Z,64.50
2016-09-06T04:54:45.781Z,64.52
2016-09-06T04:55:48.396Z,64.50
2016-09-06T04:56:51.645Z,64.52
2016-09-06T04:57:45.481Z,64.53
2016-09-06T04:58:48.774Z,64.52
2016-09-06T04:59:54.554Z,64.51
2016-09-06T05:01:00.677Z,64.55
2016-09-06T05:01:54.785Z,64.57
2016-09-06T05:03:01.904Z,64.54
2016-09-06T05:03:51.949Z,64.56
2016-09-06T05:04:48.973Z,64.58
2016-09-06T05:05:43.084Z,64.55
2016-09-06T05:06:55.513Z,64.53
2016-09-06T05:07:16.653Z,64.58
2016-09-06T05:08:55.445Z,64.68
2016-09-06T05:09:42.952Z,64.64
2016-09-06T05:10:45.271Z,64.94
2016-09-06T05:11:50.807Z,65.84
2016-09-06T05:12:40.842Z,65.27
2016-09-06T05:13:51.753Z,65.30
2016-09-06T05:14:44.787Z,65.34
2016-09-06T05:15:50.629Z,65.26
2016-09-06T05:16:51.654Z,65.39
2016-09-06T05:17:45.741Z,65.27
2016-09-06T05:18:46.182Z,65.14
2016-09-06T05:19:55.496Z,65.07
2016-09-06T05:20:55.000Z,64.86
2016-09-06T05:21:55.111Z,64.59
2016-09-06T05:22:56.338Z,64.57
2016-09-06T05:23:55.160Z,64.55
2016-09-06T05:25:00.914Z,64.55
2016-09-06T05:25:44.863Z,64.76
2016-09-06T05:26:46.023Z,64.80
2016-09-06T05:28:00.751Z,64.81
2016-09-06T05:28:54.094Z,64.65
2016-09-06T05:29:51.783Z,64.62
2016-09-06T05:30:54.942Z,64.67
2016-09-06T05:31:50.682Z,64.70
2016-09-06T05:33:08.636Z,63.96
2016-09-06T05:33:48.062Z,63.82
2016-09-06T05:34:58.241Z,63.62
2016-09-06T05:35:46.154Z,63.82
2016-09-06T05:36:51.408Z,64.40
2016-09-06T05:37:51.776Z,64.55
2016-09-06T05:38:54.924Z,64.69
2016-09-06T05:39:49.706Z,64.59
2016-09-06T05:40:51.734Z,64.62
2016-09-06T05:42:06.354Z,64.54
2016-09-06T05:42:53.663Z,64.62
2016-09-06T05:43:45.486Z,64.50
2016-09-06T05:45:00.885Z,64.72
2016-09-06T05:46:00.754Z,64.73
2016-09-06T05:46:59.442Z,64.88
2016-09-06T05:47:49.781Z,64.87
2016-09-06T05:49:01.251Z,64.91
2016-09-06T05:49:46.155Z,64.91
2016-09-06T05:50:46.374Z,64.98
2016-09-06T05:51:54.838Z,65.08
2016-09-06T05:52:52.196Z,65.07
2016-09-06T05:53:55.499Z,65.01
2016-09-06T05:54:49.372Z,65.05
2016-09-06T05:55:46.148Z,65.28
2016-09-06T05:56:49.837Z,65.32
2016-09-06T05:58:15.974Z,65.32
2016-09-06T05:59:00.914Z,65.33
2016-09-06T05:59:54.096Z,65.26
2016-09-06T06:01:06.572Z,65.42
2016-09-06T06:01:45.724Z,65.09
2016-09-06T06:02:55.710Z,65.16
2016-09-06T06:03:46.417Z,65.35
2016-09-06T06:05:00.672Z,65.67
2016-09-06T06:05:54.616Z,65.60
2016-09-06T06:06:49.771Z,64.61
2016-09-06T06:07:51.447Z,64.44
2016-09-06T06:08:50.100Z,64.61
2016-09-06T06:09:47.206Z,64.56
2016-09-06T06:11:00.162Z,65.05
2016-09-06T06:11:49.788Z,65.02
2016-09-06T06:12:56.898Z,65.33
2016-09-06T06:13:49.902Z,65.31
2016-09-06T06:14:54.833Z,65.32
2016-09-06T06:15:49.469Z,63.44
2016-09-06T06:16:50.532Z,63.03
2016-09-06T06:17:49.921Z,63.06
2016-09-06T06:18:54.846Z,63.87
2016-09-06T06:19:39.865Z,63.74
2016-09-06T06:20:55.670Z,63.91
2016-09-06T06:21:56.886Z,64.17
2016-09-06T06:22:57.230Z,64.61
2016-09-06T06:23:48.359Z,64.59
2016-09-06T06:24:49.642Z,64.37
2016-09-06T06:25:45.898Z,65.06
2016-09-06T06:26:55.671Z,64.89
2016-09-06T06:27:50.704Z,64.67
2016-09-06T06:28:41.400Z,64.07
2016-09-06T06:29:46.473Z,63.97
2016-09-06T06:30:40.178Z,64.19
2016-09-06T06:31:39.551Z,63.44
2016-09-06T06:33:02.489Z,64.28
2016-09-06T06:33:53.278Z,64.35
2016-09-06T06:34:54.520Z,64.45
2016-09-06T06:35:49.845Z,64.62
2016-09-06T06:36:51.559Z,64.52
2016-09-06T06:37:39.330Z,64.71
2016-09-06T06:38:51.580Z,64.84
2016-09-06T06:40:00.369Z,65.17
2016-09-06T06:40:41.177Z,64.96
2016-09-06T06:41:50.138Z,65.00
2016-09-06T06:42:44.561Z,65.06
2016-09-06T06:43:50.696Z,65.12
2016-09-06T06:44:51.489Z,65.36
2016-09-06T06:45:54.475Z,65.27
2016-09-06T06:46:41.829Z,65.09
2016-09-06T06:47:53.874Z,65.10
2016-09-06T06:48:45.765Z,65.16
2016-09-06T06:49:51.246Z,65.16
2016-09-06T06:50:48.470Z,64.86
2016-09-06T06:51:49.522Z,64.54
2016-09-06T06:52:49.932Z,63.71
2016-09-06T06:53:57.559Z,64.50
2016-09-06T06:54:47.789Z,64.38
2016-09-06T06:55:40.239Z,64.43
2016-09-06T06:56:55.559Z,64.67
2016-09-06T06:57:51.591Z,64.54
2016-09-06T06:59:22.477Z,64.33
2016-09-06T06:59:54.308Z,64.08
2016-09-06T07:00:51.290Z,64.23
2016-09-06T07:01:50.306Z,63.95
2016-09-06T07:02:55.281Z,64.14
2016-09-06T07:03:51.734Z,64.05
2016-09-06T07:04:56.038Z,64.35
2016-09-06T07:05:55.513Z,64.33
2016-09-06T07:06:55.144Z,64.85
2016-09-06T07:07:48.264Z,64.65
2016-09-06T07:08:46.255Z,64.14
2016-09-06T07:09:50.831Z,64.51
2016-09-06T07:10:56.411Z,64.40
2016-09-06T07:13:49.640Z,64.33
2016-09-06T07:14:51.613Z,64.17
2016-09-06T07:15:50.763Z,64.42
2016-09-06T07:16:45.806Z,64.29
2016-09-06T07:18:03.293Z,64.29
2016-09-06T07:18:55.648Z,63.97
2016-09-06T07:19:54.615Z,64.21
2016-09-06T07:20:50.823Z,64.13
2016-09-06T07:21:41.101Z,63.95
2016-09-06T07:22:40.837Z,64.20
2016-09-06T07:23:56.828Z,64.06
2016-09-06T07:24:34.796Z,64.29
2016-09-06T07:25:31.413Z,64.24
2016-09-06T07:26:39.916Z,64.37
2016-09-06T07:27:51.506Z,64.63
2016-09-06T07:28:53.109Z,64.69
2016-09-06T07:29:30.647Z,64.79
2016-09-06T07:30:55.897Z,64.94
2016-09-06T07:31:55.724Z,64.86
2016-09-06T07:32:55.158Z,64.98
2016-09-06T07:33:53.917Z,64.91
2016-09-06T07:34:55.178Z,64.88
2016-09-06T07:35:51.654Z,64.82
2016-09-06T07:36:50.199Z,64.75
2016-09-06T07:38:05.698Z,64.88
2016-09-06T07:38:55.321Z,64.95
2016-09-06T07:39:57.406Z,65.18
2016-09-06T07:40:51.602Z,65.22
2016-09-06T07:41:50.711Z,65.26
2016-09-06T07:42:46.474Z,65.32
2016-09-06T07:43:56.793Z,65.30
2016-09-06T07:44:55.576Z,65.35
2016-09-06T07:45:51.605Z,65.36
2016-09-06T07:46:50.226Z,65.43
2016-09-06T07:47:42.334Z,65.38
2016-09-06T07:48:40.034Z,65.33
2016-09-06T07:49:12.736Z,65.34
2016-09-06T07:51:00.439Z,65.34
2016-09-06T07:52:05.032Z,65.34
2016-09-06T07:52:54.616Z,65.32
2016-09-06T07:53:55.663Z,65.33
2016-09-06T07:54:51.703Z,65.37
2016-09-06T07:55:48.985Z,65.32
2016-09-06T07:56:49.165Z,65.33
2016-09-06T07:57:44.945Z,65.30
2016-09-06T07:58:55.473Z,65.25
2016-09-06T07:59:53.439Z,65.25
2016-09-06T08:01:06.085Z,65.22
2016-09-06T08:01:43.914Z,65.21
2016-09-06T08:02:50.878Z,65.20
2016-09-06T08:03:37.228Z,65.15
2016-09-06T08:04:19.211Z,65.12
2016-09-06T08:05:14.805Z,65.18
2016-09-06T08:06:56.836Z,65.12
2016-09-06T08:07:50.751Z,65.14
2016-09-06T08:09:16.414Z,65.13
2016-09-06T08:09:55.300Z,65.11
2016-09-06T08:10:50.022Z,65.12
2016-09-06T08:11:43.770Z,65.11
2016-09-06T08:12:54.021Z,65.10
2016-09-06T08:13:37.136Z,65.16
2016-09-06T08:14:49.228Z,65.10
2016-09-06T08:15:46.187Z,65.08
2016-09-06T08:16:52.004Z,65.12
2016-09-06T08:17:54.764Z,65.11
2016-09-06T08:18:56.503Z,65.12
2016-09-06T08:19:55.643Z,65.10
2016-09-06T08:21:16.348Z,65.07
2016-09-06T08:21:51.547Z,65.06
2016-09-06T08:22:51.660Z,65.05
2016-09-06T08:23:43.424Z,65.02
2016-09-06T08:24:38.853Z,65.00
2016-09-06T08:25:50.118Z,65.01
2016-09-06T08:26:46.422Z,64.99
2016-09-06T08:27:45.375Z,64.98
2016-09-06T08:28:43.751Z,64.98
2016-09-06T08:29:39.264Z,64.96
2016-09-06T08:30:38.001Z,64.96
2016-09-06T08:31:51.851Z,64.95
2016-09-06T08:32:16.469Z,64.94
2016-09-06T08:33:55.221Z,64.92
2016-09-06T08:35:01.034Z,64.93
2016-09-06T08:35:54.503Z,64.91
2016-09-06T08:37:05.547Z,64.86
2016-09-06T08:37:55.631Z,64.91
2016-09-06T08:38:46.421Z,64.91
2016-09-06T08:39:46.178Z,64.89
2016-09-06T08:40:55.902Z,64.87
2016-09-06T08:41:48.125Z,64.88
2016-09-06T08:42:53.663Z,64.87
2016-09-06T08:43:59.108Z,64.87
2016-09-06T08:45:03.785Z,64.83
2016-09-06T08:45:54.078Z,64.83
2016-09-06T08:46:51.540Z,64.82
2016-09-06T08:47:55.282Z,64.81
2016-09-06T08:48:50.771Z,64.80
2016-09-06T08:49:50.155Z,64.77
2016-09-06T08:50:59.431Z,64.76
2016-09-06T08:51:49.754Z,64.71
2016-09-06T08:52:55.519Z,64.72
2016-09-06T08:53:46.255Z,64.72
2016-09-06T08:54:57.516Z,64.68
2016-09-06T08:55:49.994Z,64.70
2016-09-06T08:56:57.979Z,64.69
2016-09-06T08:57:38.322Z,64.69
2016-09-06T08:58:50.233Z,64.68
2016-09-06T08:59:46.377Z,64.71
2016-09-06T09:00:50.289Z,64.68
2016-09-06T09:01:46.266Z,64.70
2016-09-06T09:02:40.444Z,64.69
2016-09-06T09:03:55.503Z,64.69
2016-09-06T09:04:54.806Z,64.68
2016-09-06T09:05:55.059Z,64.66
2016-09-06T09:06:49.978Z,64.63
2016-09-06T09:07:54.697Z,64.60
2016-09-06T09:09:19.696Z,64.57
2016-09-06T09:09:53.799Z,64.56
2016-09-06T09:10:56.832Z,64.52
2016-09-06T09:11:53.009Z,64.50
2016-09-06T09:12:55.925Z,64.50
2016-09-06T09:13:55.230Z,64.47
2016-09-06T09:14:48.119Z,64.45
2016-09-06T09:16:51.459Z,64.44
2016-09-06T09:17:54.447Z,64.44
2016-09-06T09:18:51.628Z,64.44
2016-09-06T09:19:55.025Z,64.43
2016-09-06T09:20:55.154Z,64.45
2016-09-06T09:21:54.754Z,64.46
2016-09-06T09:22:51.813Z,64.45
2016-09-06T09:24:06.169Z,64.46
2016-09-06T09:25:00.843Z,64.42
2016-09-06T09:26:06.359Z,64.42
2016-09-06T09:26:59.479Z,64.41
2016-09-06T09:28:05.210Z,64.40
2016-09-06T09:28:59.689Z,64.38
2016-09-06T09:30:00.058Z,64.38
2016-09-06T09:30:55.727Z,64.21
2016-09-06T09:31:55.828Z,63.36
2016-09-06T09:32:41.550Z,63.15
2016-09-06T09:33:55.550Z,63.09
2016-09-06T09:34:40.749Z,62.98
2016-09-06T09:35:50.080Z,62.93
2016-09-06T09:37:01.068Z,62.90
2016-09-06T09:37:56.084Z,62.87
2016-09-06T09:38:55.292Z,62.83
2016-09-06T09:39:55.617Z,62.78
2016-09-06T09:41:16.904Z,62.74
2016-09-06T09:42:20.917Z,63.14
2016-09-06T09:43:07.415Z,63.72
2016-09-06T09:43:54.440Z,63.88
2016-09-06T09:44:51.281Z,63.92
2016-09-06T09:45:40.388Z,63.96
2016-09-06T09:46:41.932Z,63.98
2016-09-06T09:47:37.787Z,63.98
2016-09-06T09:48:49.892Z,63.99
2016-09-06T09:49:51.270Z,63.99
2016-09-06T09:50:45.567Z,63.97
2016-09-06T09:51:49.369Z,63.97
2016-09-06T09:52:53.903Z,63.93
2016-09-06T09:53:49.973Z,63.94
2016-09-06T09:54:54.046Z,63.92
2016-09-06T09:55:49.245Z,63.94
2016-09-06T09:56:50.117Z,63.96
2016-09-06T09:57:54.671Z,63.96
2016-09-06T09:58:56.443Z,63.94
2016-09-06T09:59:55.401Z,63.96
2016-09-06T10:00:50.707Z,63.95
2016-09-06T10:01:51.785Z,63.94
2016-09-06T10:03:24.195Z,63.91
2016-09-06T10:03:47.202Z,63.90
2016-09-06T10:04:50.505Z,63.86
2016-09-06T10:05:51.835Z,63.83
2016-09-06T10:07:06.663Z,63.80
2016-09-06T10:07:55.900Z,63.80
2016-09-06T10:08:50.911Z,63.81
2016-09-06T10:09:54.967Z,63.79
2016-09-06T10:10:48.669Z,63.78
2016-09-06T10:11:46.370Z,63.77
2016-09-06T10:12:50.432Z,62.72
2016-09-06T10:13:50.167Z,62.48
2016-09-06T10:14:49.307Z,62.45
2016-09-06T10:15:46.201Z,63.32
2016-09-06T10:16:54.286Z,63.47
2016-09-06T10:18:01.245Z,63.53
2016-09-06T10:19:23.416Z,63.55
2016-09-06T10:19:46.425Z,63.57
2016-09-06T10:20:56.067Z,63.55
2016-09-06T10:21:55.488Z,63.55
2016-09-06T10:22:55.687Z,63.55
2016-09-06T10:23:51.810Z,63.54
2016-09-06T10:24:23.884Z,63.58
2016-09-06T10:26:00.818Z,63.57
2016-09-06T10:26:59.419Z,63.60
2016-09-06T10:27:44.301Z,63.62
2016-09-06T10:28:37.464Z,63.62
2016-09-06T10:29:51.928Z,63.63
2016-09-06T10:30:39.465Z,63.63
2016-09-06T10:31:15.653Z,63.64
2016-09-06T10:32:19.854Z,63.65
2016-09-06T10:33:49.424Z,63.64
2016-09-06T10:34:52.435Z,63.63
2016-09-06T10:35:54.909Z,63.62
2016-09-06T10:36:52.502Z,63.61
2016-09-06T10:37:45.772Z,63.58
2016-09-06T10:38:50.060Z,63.60
2016-09-06T10:39:53.046Z,63.56
2016-09-06T10:40:50.682Z,63.55
2016-09-06T10:41:51.502Z,63.54
2016-09-06T10:43:01.868Z,63.53
2016-09-06T10:43:51.403Z,63.51
2016-09-06T10:44:51.707Z,63.50
2016-09-06T10:46:00.655Z,63.48
2016-09-06T10:46:59.719Z,63.50
2016-09-06T10:48:17.983Z,63.52
2016-09-06T10:48:51.581Z,63.54
2016-09-06T10:49:51.691Z,63.57
2016-09-06T10:50:57.179Z,63.57
2016-09-06T10:51:59.135Z,63.55
2016-09-06T10:52:50.335Z,63.52
2016-09-06T10:53:55.725Z,63.50
2016-09-06T10:54:51.465Z,63.49
2016-09-06T10:55:56.875Z,63.47
2016-09-06T10:56:51.020Z,63.45
2016-09-06T10:57:56.332Z,63.44
2016-09-06T10:59:08.965Z,63.42
2016-09-06T11:00:00.318Z,63.41
2016-09-06T11:01:20.959Z,63.39
2016-09-06T11:02:26.873Z,63.36
2016-09-06T11:02:59.773Z,63.35
2016-09-06T11:04:06.132Z,63.34
2016-09-06T11:04:55.205Z,63.33
2016-09-06T11:05:55.477Z,63.31
2016-09-06T11:06:56.714Z,63.30
2016-09-06T11:07:50.352Z,63.29
2016-09-06T11:08:59.175Z,63.27
2016-09-06T11:09:28.351Z,63.26
2016-09-06T11:10:50.474Z,63.27
2016-09-06T11:12:01.639Z,63.24
2016-09-06T11:12:54.964Z,63.24
2016-09-06T11:13:21.635Z,63.22
2016-09-06T11:14:49.843Z,63.21
2016-09-06T11:15:40.514Z,63.21
2016-09-06T11:16:59.378Z,63.21
2016-09-06T11:17:28.128Z,63.21
2016-09-06T11:18:26.705Z,63.23
2016-09-06T11:19:16.613Z,63.26
2016-09-06T11:20:38.722Z,63.28
2016-09-06T11:21:29.692Z,63.25
2016-09-06T11:22:39.406Z,63.28
2016-09-06T11:23:26.618Z,63.25
2016-09-06T11:24:50.742Z,63.21
2016-09-06T11:25:39.005Z,63.19
2016-09-06T11:26:40.209Z,63.18
2016-09-06T11:27:44.411Z,63.15
2016-09-06T11:28:57.011Z,63.12
2016-09-06T11:29:15.735Z,63.07
2016-09-06T11:30:53.695Z,63.05
2016-09-06T11:32:05.745Z,63.01
2016-09-06T11:32:54.126Z,62.98
2016-09-06T11:33:51.869Z,62.94
2016-09-06T11:34:52.256Z,62.93
2016-09-06T11:35:37.719Z,62.92
2016-09-06T11:36:40.013Z,62.87
2016-09-06T11:37:50.110Z,62.86
2016-09-06T11:38:45.198Z,62.83
2016-09-06T11:39:55.510Z,62.84
2016-09-06T11:40:17.715Z,62.86
2016-09-06T11:41:49.659Z,62.88
2016-09-06T11:42:50.126Z,62.88
2016-09-06T11:43:48.691Z,62.91
2016-09-06T11:44:26.880Z,62.91
2016-09-06T11:45:37.819Z,62.93
2016-09-06T11:46:50.525Z,62.91
2016-09-06T11:47:14.497Z,62.90
2016-09-06T11:48:45.663Z,62.85
2016-09-06T11:49:31.712Z,62.83
2016-09-06T11:50:50.622Z,62.81
2016-09-06T11:51:38.646Z,62.82
2016-09-06T11:52:38.575Z,62.83
2016-09-06T11:53:49.549Z,62.79
2016-09-06T11:54:56.279Z,62.79
2016-09-06T11:55:49.903Z,62.78
2016-09-06T11:56:54.756Z,62.79
2016-09-06T11:57:29.070Z,62.78
2016-09-06T11:58:13.918Z,62.76
2016-09-06T11:59:39.667Z,62.76
2016-09-06T12:00:40.184Z,62.74
2016-09-06T12:01:17.658Z,62.73
2016-09-06T12:02:49.722Z,62.72
2016-09-06T12:03:37.860Z,62.69
2016-09-06T12:04:44.232Z,62.66
2016-09-06T12:05:36.825Z,62.65
2016-09-06T12:06:49.367Z,62.63
2016-09-06T12:07:47.917Z,62.52
2016-09-06T12:08:29.489Z,62.61
2016-09-06T12:09:45.811Z,62.61
2016-09-06T12:10:18.615Z,62.61
2016-09-06T12:11:29.414Z,62.58
2016-09-06T12:12:27.613Z,62.44
2016-09-06T12:13:18.577Z,61.93
2016-09-06T12:14:39.054Z,62.37
2016-09-06T12:15:41.833Z,62.44
2016-09-06T12:16:39.459Z,62.49
2016-09-06T12:17:27.722Z,62.54
2016-09-06T12:18:55.104Z,62.60
2016-09-06T12:19:50.380Z,62.50
2016-09-06T12:20:17.858Z,62.53
2016-09-06T12:21:51.297Z,62.62
2016-09-06T12:22:50.632Z,62.62
2016-09-06T12:23:54.303Z,62.63
2016-09-06T12:24:50.210Z,62.65
2016-09-06T12:25:38.037Z,62.52
2016-09-06T12:27:01.766Z,62.53
2016-09-06T12:27:45.106Z,62.53
2016-09-06T12:28:51.006Z,62.56
2016-09-06T12:30:06.135Z,62.55
2016-09-06T12:31:00.330Z,62.50
2016-09-06T12:31:55.246Z,62.52
2016-09-06T12:32:55.937Z,62.51
2016-09-06T12:33:55.453Z,62.51
2016-09-06T12:34:55.813Z,62.49
2016-09-06T12:36:00.952Z,62.48
2016-09-06T12:36:59.431Z,62.48
2016-09-06T12:37:49.126Z,62.49
2016-09-06T12:38:49.248Z,62.52
2016-09-06T12:39:50.601Z,62.50
2016-09-06T12:40:50.384Z,62.50
2016-09-06T12:41:52.222Z,62.51
2016-09-06T12:42:51.039Z,62.50
2016-09-06T12:43:49.116Z,62.50
2016-09-06T12:45:19.776Z,62.50
2016-09-06T12:46:04.497Z,62.50
2016-09-06T12:46:59.937Z,62.48
2016-09-06T12:47:54.014Z,62.49
2016-09-06T12:48:38.443Z,62.50
2016-09-06T12:49:50.603Z,62.49
2016-09-06T12:50:51.797Z,62.50
2016-09-06T12:51:54.853Z,62.49
2016-09-06T12:52:57.084Z,62.50
2016-09-06T12:53:48.879Z,62.48
2016-09-06T12:54:50.899Z,62.47
2016-09-06T12:55:51.598Z,62.44